Sterling, Michigan
Current Conditions -  °F | °C
As of 2:52 PM on Friday 24 Oct 2014 (Local Time) from KIKW Reporting Station
Overcast Overcast  
Wind Chill: 60°   Ceiling: 2700
Heat Index: 60°   Visibility: 7mi
Dew Point: 48°   Wind: 9mph
Humidity: 64%   Direction: 260°W
Pressure: 29.96"   Gusts: NA
Location:  44.03°N, 84.02°W
Report Text: KIKW 241852Z AUTO 26008KT 7SM OVC027 16/09 A2996 RMK AO2 T01570090
Loading
Personal Weather Stations






























Interactive Weather Map
Tropical Storm Tracking
New forecast layout! Learn more

10-Day Weather Forecast

Advertisements
Track Severe Weather on mobile